Dingtao, China
Current Conditions -  °F | °C
As of 8:00 PM on Saturday 25 Oct 2014 (Local Time) from ZHCC Reporting Station
Clear Clear  
Wind Chill: 70°   Ceiling: Unl
Heat Index: 70°   Visibility: 4mi
Dew Point: 57°   Wind: 4mph
Humidity: 64%   Direction: 200°SSW
Pressure: 29.91"   Gusts: NA
Location:  35.07°N, 115.56°E
Report Text: ZHCC 251200Z 20002MPS 150V240 6000 NSC 21/14 Q1013 NOSIG
Loading
Personal Weather Stations






























Interactive Weather Map
Tropical Storm Tracking
New forecast layout! Learn more

10-Day Weather Forecast

Advertisements
Track Severe Weather on mobile